TAF and METAR

Decoding for American and Canadian METARs and TAFs is not fully implemented.

Could not understand the following METAR

PADE 181253Z AUTO 01005KT 10SM SCT027 OVC047 M07/M11 A2970 RMK AO2 SLP057 T10721111 TSNO
No TAF available for Deering Airport
Deering Airport in United States of America at 5m

Latest 5 airports